sensor_id;sensor_type;location;lat;lon;timestamp;temperature;humidity
71039;SHT30;58692;43.212;27.908;2023-12-07T00:01:35;9.51;98.44
71039;SHT30;58692;43.212;27.908;2023-12-07T00:04:02;9.51;98.30
71039;SHT30;58692;43.212;27.908;2023-12-07T00:06:28;9.58;98.06
71039;SHT30;58692;43.212;27.908;2023-12-07T00:08:54;9.52;98.25
71039;SHT30;58692;43.212;27.908;2023-12-07T00:11:22;9.54;98.27
71039;SHT30;58692;43.212;27.908;2023-12-07T00:13:48;9.51;98.26
71039;SHT30;58692;43.212;27.908;2023-12-07T00:16:14;9.51;98.18
71039;SHT30;58692;43.212;27.908;2023-12-07T00:18:39;9.52;98.45
71039;SHT30;58692;43.212;27.908;2023-12-07T00:21:05;9.50;98.33
71039;SHT30;58692;43.212;27.908;2023-12-07T00:23:32;9.51;98.23
71039;SHT30;58692;43.212;27.908;2023-12-07T00:25:58;9.46;98.52
71039;SHT30;58692;43.212;27.908;2023-12-07T00:28:24;9.52;98.10
71039;SHT30;58692;43.212;27.908;2023-12-07T00:30:49;9.51;98.11
71039;SHT30;58692;43.212;27.908;2023-12-07T00:33:15;9.47;98.33
71039;SHT30;58692;43.212;27.908;2023-12-07T00:35:42;9.50;98.30
71039;SHT30;58692;43.212;27.908;2023-12-07T00:38:08;9.47;98.29
71039;SHT30;58692;43.212;27.908;2023-12-07T00:40:34;9.44;98.43
71039;SHT30;58692;43.212;27.908;2023-12-07T00:43:02;9.47;98.16
71039;SHT30;58692;43.212;27.908;2023-12-07T00:45:28;9.46;98.42
71039;SHT30;58692;43.212;27.908;2023-12-07T00:47:54;9.48;98.14
71039;SHT30;58692;43.212;27.908;2023-12-07T00:50:20;9.44;98.09
71039;SHT30;58692;43.212;27.908;2023-12-07T00:52:45;9.47;98.00
71039;SHT30;58692;43.212;27.908;2023-12-07T00:55:11;9.47;97.93
71039;SHT30;58692;43.212;27.908;2023-12-07T00:57:37;9.46;97.98
71039;SHT30;58692;43.212;27.908;2023-12-07T01:00:03;9.50;97.76
71039;SHT30;58692;43.212;27.908;2023-12-07T01:02:29;9.48;97.95
71039;SHT30;58692;43.212;27.908;2023-12-07T01:04:55;9.54;97.94
71039;SHT30;58692;43.212;27.908;2023-12-07T01:07:20;9.51;97.96
71039;SHT30;58692;43.212;27.908;2023-12-07T01:09:46;9.54;97.62
71039;SHT30;58692;43.212;27.908;2023-12-07T01:12:12;9.51;97.84
71039;SHT30;58692;43.212;27.908;2023-12-07T01:14:38;9.48;97.68
71039;SHT30;58692;43.212;27.908;2023-12-07T01:17:04;9.47;98.17
71039;SHT30;58692;43.212;27.908;2023-12-07T01:19:29;9.48;97.81
71039;SHT30;58692;43.212;27.908;2023-12-07T01:21:55;9.44;97.97
71039;SHT30;58692;43.212;27.908;2023-12-07T01:24:20;9.48;97.84
71039;SHT30;58692;43.212;27.908;2023-12-07T01:26:46;9.46;97.91
71039;SHT30;58692;43.212;27.908;2023-12-07T01:29:11;9.47;97.78
71039;SHT30;58692;43.212;27.908;2023-12-07T01:31:39;9.47;97.83
71039;SHT30;58692;43.212;27.908;2023-12-07T01:34:05;9.47;97.80
71039;SHT30;58692;43.212;27.908;2023-12-07T01:36:31;9.48;97.85
71039;SHT30;58692;43.212;27.908;2023-12-07T01:38:56;9.46;97.77
71039;SHT30;58692;43.212;27.908;2023-12-07T01:41:22;9.48;97.90
71039;SHT30;58692;43.212;27.908;2023-12-07T01:43:48;9.48;97.63
71039;SHT30;58692;43.212;27.908;2023-12-07T01:46:15;9.46;97.77
71039;SHT30;58692;43.212;27.908;2023-12-07T01:48:41;9.43;97.79
71039;SHT30;58692;43.212;27.908;2023-12-07T01:51:09;9.44;97.79
71039;SHT30;58692;43.212;27.908;2023-12-07T01:53:35;9.43;97.56
71039;SHT30;58692;43.212;27.908;2023-12-07T01:56:03;9.47;97.62
71039;SHT30;58692;43.212;27.908;2023-12-07T01:58:29;9.44;97.62
71039;SHT30;58692;43.212;27.908;2023-12-07T02:00:56;9.48;97.47
71039;SHT30;58692;43.212;27.908;2023-12-07T02:03:22;9.43;97.47
71039;SHT30;58692;43.212;27.908;2023-12-07T02:05:49;9.41;97.45
71039;SHT30;58692;43.212;27.908;2023-12-07T02:08:15;9.40;97.56
71039;SHT30;58692;43.212;27.908;2023-12-07T02:10:41;9.40;97.58
71039;SHT30;58692;43.212;27.908;2023-12-07T02:13:07;9.43;97.38
71039;SHT30;58692;43.212;27.908;2023-12-07T02:15:33;9.43;97.37
71039;SHT30;58692;43.212;27.908;2023-12-07T02:18:15;9.43;97.64
71039;SHT30;58692;43.212;27.908;2023-12-07T02:23:25;9.36;97.31
71039;SHT30;58692;43.212;27.908;2023-12-07T02:29:05;9.30;97.52
71039;SHT30;58692;43.212;27.908;2023-12-07T02:31:30;9.34;97.25
71039;SHT30;58692;43.212;27.908;2023-12-07T02:33:56;9.31;97.40
71039;SHT30;58692;43.212;27.908;2023-12-07T02:36:24;9.30;97.43
71039;SHT30;58692;43.212;27.908;2023-12-07T02:38:51;9.34;97.09
71039;SHT30;58692;43.212;27.908;2023-12-07T02:41:18;9.33;97.26
71039;SHT30;58692;43.212;27.908;2023-12-07T02:43:45;9.33;97.32
71039;SHT30;58692;43.212;27.908;2023-12-07T02:46:11;9.30;96.94
71039;SHT30;58692;43.212;27.908;2023-12-07T02:48:36;9.30;97.12
71039;SHT30;58692;43.212;27.908;2023-12-07T02:51:02;9.23;97.26
71039;SHT30;58692;43.212;27.908;2023-12-07T02:53:28;9.22;97.19
71039;SHT30;58692;43.212;27.908;2023-12-07T02:55:53;9.24;97.42
71039;SHT30;58692;43.212;27.908;2023-12-07T02:58:19;9.23;97.57
71039;SHT30;58692;43.212;27.908;2023-12-07T03:00:44;9.24;97.69
71039;SHT30;58692;43.212;27.908;2023-12-07T03:03:10;9.23;97.56
71039;SHT30;58692;43.212;27.908;2023-12-07T03:05:35;9.29;97.47
71039;SHT30;58692;43.212;27.908;2023-12-07T03:08:01;9.24;96.73
71039;SHT30;58692;43.212;27.908;2023-12-07T03:10:26;9.20;96.98
71039;SHT30;58692;43.212;27.908;2023-12-07T03:12:52;9.19;97.12
71039;SHT30;58692;43.212;27.908;2023-12-07T03:15:18;9.20;97.10
71039;SHT30;58692;43.212;27.908;2023-12-07T03:17:44;9.20;97.20
71039;SHT30;58692;43.212;27.908;2023-12-07T03:20:09;9.17;97.16
71039;SHT30;58692;43.212;27.908;2023-12-07T03:22:35;9.19;96.90
71039;SHT30;58692;43.212;27.908;2023-12-07T03:25:01;9.20;96.97
71039;SHT30;58692;43.212;27.908;2023-12-07T03:27:26;9.24;97.01
71039;SHT30;58692;43.212;27.908;2023-12-07T03:29:53;9.20;96.39
71039;SHT30;58692;43.212;27.908;2023-12-07T03:32:19;9.23;96.76
71039;SHT30;58692;43.212;27.908;2023-12-07T03:34:45;9.22;96.65
71039;SHT30;58692;43.212;27.908;2023-12-07T03:37:10;9.20;96.97
71039;SHT30;58692;43.212;27.908;2023-12-07T03:39:36;9.20;96.73
71039;SHT30;58692;43.212;27.908;2023-12-07T03:42:02;9.20;96.52
71039;SHT30;58692;43.212;27.908;2023-12-07T03:44:28;9.22;96.24
71039;SHT30;58692;43.212;27.908;2023-12-07T03:46:54;9.17;96.15
71039;SHT30;58692;43.212;27.908;2023-12-07T03:49:20;9.17;96.26
71039;SHT30;58692;43.212;27.908;2023-12-07T03:51:46;9.19;96.56
71039;SHT30;58692;43.212;27.908;2023-12-07T03:54:11;9.16;96.32
71039;SHT30;58692;43.212;27.908;2023-12-07T03:56:37;9.13;96.60
71039;SHT30;58692;43.212;27.908;2023-12-07T03:59:02;9.10;96.39
71039;SHT30;58692;43.212;27.908;2023-12-07T04:01:29;9.09;96.14
71039;SHT30;58692;43.212;27.908;2023-12-07T04:03:56;9.13;96.43
71039;SHT30;58692;43.212;27.908;2023-12-07T04:06:23;9.16;96.27
71039;SHT30;58692;43.212;27.908;2023-12-07T04:08:49;9.13;96.39
71039;SHT30;58692;43.212;27.908;2023-12-07T04:11:14;9.13;96.53
71039;SHT30;58692;43.212;27.908;2023-12-07T04:13:40;9.13;96.28
71039;SHT30;58692;43.212;27.908;2023-12-07T04:16:07;9.15;96.31
71039;SHT30;58692;43.212;27.908;2023-12-07T04:18:33;9.15;96.51
71039;SHT30;58692;43.212;27.908;2023-12-07T04:20:58;9.15;96.51
71039;SHT30;58692;43.212;27.908;2023-12-07T04:23:24;9.10;96.24
71039;SHT30;58692;43.212;27.908;2023-12-07T04:25:50;9.10;96.08
71039;SHT30;58692;43.212;27.908;2023-12-07T04:28:15;9.06;95.78
71039;SHT30;58692;43.212;27.908;2023-12-07T04:30:41;8.93;95.68
71039;SHT30;58692;43.212;27.908;2023-12-07T04:33:07;8.83;95.52
71039;SHT30;58692;43.212;27.908;2023-12-07T04:35:34;8.76;95.28
71039;SHT30;58692;43.212;27.908;2023-12-07T04:37:59;8.64;95.32
71039;SHT30;58692;43.212;27.908;2023-12-07T04:40:25;8.54;95.73
71039;SHT30;58692;43.212;27.908;2023-12-07T04:42:51;8.45;95.49
71039;SHT30;58692;43.212;27.908;2023-12-07T04:45:17;8.44;95.79
71039;SHT30;58692;43.212;27.908;2023-12-07T04:47:43;8.37;95.66
71039;SHT30;58692;43.212;27.908;2023-12-07T04:50:09;8.35;95.92
71039;SHT30;58692;43.212;27.908;2023-12-07T04:52:35;8.25;96.01
71039;SHT30;58692;43.212;27.908;2023-12-07T04:55:01;8.17;95.89
71039;SHT30;58692;43.212;27.908;2023-12-07T04:57:27;8.18;96.04
71039;SHT30;58692;43.212;27.908;2023-12-07T04:59:52;8.21;95.89
71039;SHT30;58692;43.212;27.908;2023-12-07T05:02:18;8.15;95.53
71039;SHT30;58692;43.212;27.908;2023-12-07T05:04:44;8.13;95.72
71039;SHT30;58692;43.212;27.908;2023-12-07T05:07:11;8.14;95.61
71039;SHT30;58692;43.212;27.908;2023-12-07T05:09:38;8.11;96.01
71039;SHT30;58692;43.212;27.908;2023-12-07T05:12:04;8.13;95.74
71039;SHT30;58692;43.212;27.908;2023-12-07T05:14:32;8.13;95.64
71039;SHT30;58692;43.212;27.908;2023-12-07T05:16:57;8.10;95.47
71039;SHT30;58692;43.212;27.908;2023-12-07T05:19:31;8.14;95.74
71039;SHT30;58692;43.212;27.908;2023-12-07T05:21:57;8.18;95.41
71039;SHT30;58692;43.212;27.908;2023-12-07T05:24:23;8.13;95.43
71039;SHT30;58692;43.212;27.908;2023-12-07T05:26:48;8.08;95.32
71039;SHT30;58692;43.212;27.908;2023-12-07T05:29:14;8.08;95.56
71039;SHT30;58692;43.212;27.908;2023-12-07T05:31:40;8.10;95.59
71039;SHT30;58692;43.212;27.908;2023-12-07T05:34:07;8.00;95.39
71039;SHT30;58692;43.212;27.908;2023-12-07T05:36:33;8.01;95.57
71039;SHT30;58692;43.212;27.908;2023-12-07T05:38:58;7.97;95.60
71039;SHT30;58692;43.212;27.908;2023-12-07T05:41:24;8.01;95.81
71039;SHT30;58692;43.212;27.908;2023-12-07T05:43:51;7.95;95.40
71039;SHT30;58692;43.212;27.908;2023-12-07T05:46:18;7.90;95.71
71039;SHT30;58692;43.212;27.908;2023-12-07T05:48:44;7.91;95.83
71039;SHT30;58692;43.212;27.908;2023-12-07T05:51:15;7.90;96.01
71039;SHT30;58692;43.212;27.908;2023-12-07T05:53:41;7.91;95.98
71039;SHT30;58692;43.212;27.908;2023-12-07T05:56:07;7.97;95.89
71039;SHT30;58692;43.212;27.908;2023-12-07T05:58:33;7.93;96.03
71039;SHT30;58692;43.212;27.908;2023-12-07T06:01:00;7.87;96.14
71039;SHT30;58692;43.212;27.908;2023-12-07T06:03:27;7.98;96.06
71039;SHT30;58692;43.212;27.908;2023-12-07T06:05:55;8.00;96.11
71039;SHT30;58692;43.212;27.908;2023-12-07T06:08:22;7.90;95.77
71039;SHT30;58692;43.212;27.908;2023-12-07T06:10:48;7.84;96.29
71039;SHT30;58692;43.212;27.908;2023-12-07T06:13:13;7.84;96.30
71039;SHT30;58692;43.212;27.908;2023-12-07T06:15:40;7.89;96.42
71039;SHT30;58692;43.212;27.908;2023-12-07T06:18:06;7.91;96.35
71039;SHT30;58692;43.212;27.908;2023-12-07T06:20:32;7.93;96.38
71039;SHT30;58692;43.212;27.908;2023-12-07T06:22:57;7.93;95.57
71039;SHT30;58692;43.212;27.908;2023-12-07T06:25:23;7.89;95.84
71039;SHT30;58692;43.212;27.908;2023-12-07T06:27:49;7.89;95.91
71039;SHT30;58692;43.212;27.908;2023-12-07T06:30:15;7.94;95.81
71039;SHT30;58692;43.212;27.908;2023-12-07T06:32:41;7.87;95.61
71039;SHT30;58692;43.212;27.908;2023-12-07T06:35:07;7.84;95.99
71039;SHT30;58692;43.212;27.908;2023-12-07T06:37:33;7.86;95.98
71039;SHT30;58692;43.212;27.908;2023-12-07T06:39:58;7.90;95.83
71039;SHT30;58692;43.212;27.908;2023-12-07T06:42:26;7.91;96.00
71039;SHT30;58692;43.212;27.908;2023-12-07T06:44:54;7.93;95.75
71039;SHT30;58692;43.212;27.908;2023-12-07T06:47:19;7.91;95.92
71039;SHT30;58692;43.212;27.908;2023-12-07T06:49:45;7.87;95.81
71039;SHT30;58692;43.212;27.908;2023-12-07T06:52:11;7.87;96.26
71039;SHT30;58692;43.212;27.908;2023-12-07T06:54:38;7.90;96.46
71039;SHT30;58692;43.212;27.908;2023-12-07T06:57:04;7.97;96.31
71039;SHT30;58692;43.212;27.908;2023-12-07T06:59:32;7.90;95.99
71039;SHT30;58692;43.212;27.908;2023-12-07T07:01:58;7.90;95.98
71039;SHT30;58692;43.212;27.908;2023-12-07T07:04:24;7.90;96.22
71039;SHT30;58692;43.212;27.908;2023-12-07T07:06:50;7.91;96.29
71039;SHT30;58692;43.212;27.908;2023-12-07T07:09:17;7.98;96.55
71039;SHT30;58692;43.212;27.908;2023-12-07T07:11:47;7.95;96.39
71039;SHT30;58692;43.212;27.908;2023-12-07T07:14:13;8.00;96.59
71039;SHT30;58692;43.212;27.908;2023-12-07T07:16:42;7.97;96.34
71039;SHT30;58692;43.212;27.908;2023-12-07T07:19:08;8.00;96.35
71039;SHT30;58692;43.212;27.908;2023-12-07T07:21:34;8.03;96.57
71039;SHT30;58692;43.212;27.908;2023-12-07T07:24:02;8.04;96.69
71039;SHT30;58692;43.212;27.908;2023-12-07T07:26:29;8.04;96.32
71039;SHT30;58692;43.212;27.908;2023-12-07T07:28:54;8.00;96.32
71039;SHT30;58692;43.212;27.908;2023-12-07T07:31:20;8.01;96.18
71039;SHT30;58692;43.212;27.908;2023-12-07T07:33:45;8.01;95.99
71039;SHT30;58692;43.212;27.908;2023-12-07T07:36:14;8.05;96.28
71039;SHT30;58692;43.212;27.908;2023-12-07T07:38:41;8.01;95.95
71039;SHT30;58692;43.212;27.908;2023-12-07T07:41:07;8.04;96.30
71039;SHT30;58692;43.212;27.908;2023-12-07T07:43:33;8.05;96.08
71039;SHT30;58692;43.212;27.908;2023-12-07T07:46:00;8.01;96.38
71039;SHT30;58692;43.212;27.908;2023-12-07T07:48:26;8.05;96.10
71039;SHT30;58692;43.212;27.908;2023-12-07T07:50:52;8.07;96.10
71039;SHT30;58692;43.212;27.908;2023-12-07T07:53:17;8.00;95.68
71039;SHT30;58692;43.212;27.908;2023-12-07T07:55:46;8.04;95.97
71039;SHT30;58692;43.212;27.908;2023-12-07T07:58:15;8.01;96.22
71039;SHT30;58692;43.212;27.908;2023-12-07T08:00:46;8.05;95.89
71039;SHT30;58692;43.212;27.908;2023-12-07T08:03:12;8.07;95.20
71039;SHT30;58692;43.212;27.908;2023-12-07T08:05:38;7.98;95.25
71039;SHT30;58692;43.212;27.908;2023-12-07T08:08:04;8.00;95.62
71039;SHT30;58692;43.212;27.908;2023-12-07T08:10:31;7.98;95.43
71039;SHT30;58692;43.212;27.908;2023-12-07T08:13:02;8.03;95.44
71039;SHT30;58692;43.212;27.908;2023-12-07T08:15:27;8.07;95.46
71039;SHT30;58692;43.212;27.908;2023-12-07T08:17:55;8.11;95.62
71039;SHT30;58692;43.212;27.908;2023-12-07T08:20:21;8.11;95.38
71039;SHT30;58692;43.212;27.908;2023-12-07T08:22:50;8.11;95.67
71039;SHT30;58692;43.212;27.908;2023-12-07T08:25:16;8.08;95.42
71039;SHT30;58692;43.212;27.908;2023-12-07T08:27:42;8.10;95.34
71039;SHT30;58692;43.212;27.908;2023-12-07T08:30:10;8.11;95.44
71039;SHT30;58692;43.212;27.908;2023-12-07T08:32:37;8.15;95.43
71039;SHT30;58692;43.212;27.908;2023-12-07T08:35:03;8.20;95.21
71039;SHT30;58692;43.212;27.908;2023-12-07T08:37:31;8.24;95.05
71039;SHT30;58692;43.212;27.908;2023-12-07T08:39:57;8.25;95.32
71039;SHT30;58692;43.212;27.908;2023-12-07T08:42:23;8.33;95.21
71039;SHT30;58692;43.212;27.908;2023-12-07T08:44:49;8.35;95.02
71039;SHT30;58692;43.212;27.908;2023-12-07T08:47:14;8.38;94.79
71039;SHT30;58692;43.212;27.908;2023-12-07T08:49:43;8.35;94.93
71039;SHT30;58692;43.212;27.908;2023-12-07T08:52:16;8.30;94.48
71039;SHT30;58692;43.212;27.908;2023-12-07T08:54:43;8.41;94.32
71039;SHT30;58692;43.212;27.908;2023-12-07T08:57:18;8.38;94.97
71039;SHT30;58692;43.212;27.908;2023-12-07T08:59:44;8.42;95.29
71039;SHT30;58692;43.212;27.908;2023-12-07T09:02:13;8.51;94.86
71039;SHT30;58692;43.212;27.908;2023-12-07T09:04:39;8.51;94.45
71039;SHT30;58692;43.212;27.908;2023-12-07T09:07:05;8.55;94.34
71039;SHT30;58692;43.212;27.908;2023-12-07T09:09:32;8.45;93.51
71039;SHT30;58692;43.212;27.908;2023-12-07T09:11:58;8.46;93.97
71039;SHT30;58692;43.212;27.908;2023-12-07T09:14:25;8.46;94.04
71039;SHT30;58692;43.212;27.908;2023-12-07T09:16:52;8.38;93.58
71039;SHT30;58692;43.212;27.908;2023-12-07T09:19:49;8.46;93.52
71039;SHT30;58692;43.212;27.908;2023-12-07T09:22:22;8.41;93.32
71039;SHT30;58692;43.212;27.908;2023-12-07T09:24:47;8.28;92.90
71039;SHT30;58692;43.212;27.908;2023-12-07T09:27:13;8.30;93.64
71039;SHT30;58692;43.212;27.908;2023-12-07T09:29:41;8.30;93.20
71039;SHT30;58692;43.212;27.908;2023-12-07T09:32:08;8.35;93.41
71039;SHT30;58692;43.212;27.908;2023-12-07T09:34:35;8.28;93.40
71039;SHT30;58692;43.212;27.908;2023-12-07T09:37:09;8.30;93.30
71039;SHT30;58692;43.212;27.908;2023-12-07T09:42:44;8.31;93.52
71039;SHT30;58692;43.212;27.908;2023-12-07T09:45:11;8.28;93.27
71039;SHT30;58692;43.212;27.908;2023-12-07T09:47:42;8.34;93.02
71039;SHT30;58692;43.212;27.908;2023-12-07T09:50:09;8.37;93.15
71039;SHT30;58692;43.212;27.908;2023-12-07T09:52:35;8.44;93.43
71039;SHT30;58692;43.212;27.908;2023-12-07T09:55:11;8.31;92.71
71039;SHT30;58692;43.212;27.908;2023-12-07T09:57:37;8.23;92.30
71039;SHT30;58692;43.212;27.908;2023-12-07T10:00:10;8.35;92.42
71039;SHT30;58692;43.212;27.908;2023-12-07T10:02:41;8.31;92.31
71039;SHT30;58692;43.212;27.908;2023-12-07T10:05:10;8.38;91.67
71039;SHT30;58692;43.212;27.908;2023-12-07T10:07:41;8.35;91.82
71039;SHT30;58692;43.212;27.908;2023-12-07T10:10:07;8.18;90.93
71039;SHT30;58692;43.212;27.908;2023-12-07T10:12:43;8.23;92.11
71039;SHT30;58692;43.212;27.908;2023-12-07T10:15:15;8.31;91.39
71039;SHT30;58692;43.212;27.908;2023-12-07T10:17:56;8.38;91.26
71039;SHT30;58692;43.212;27.908;2023-12-07T10:20:27;8.17;90.85
71039;SHT30;58692;43.212;27.908;2023-12-07T10:23:08;8.27;91.18
71039;SHT30;58692;43.212;27.908;2023-12-07T10:25:37;8.23;90.81
71039;SHT30;58692;43.212;27.908;2023-12-07T10:28:04;8.18;90.96
71039;SHT30;58692;43.212;27.908;2023-12-07T10:30:33;8.10;90.30
71039;SHT30;58692;43.212;27.908;2023-12-07T10:33:05;8.14;91.07
71039;SHT30;58692;43.212;27.908;2023-12-07T10:35:32;7.95;91.04
71039;SHT30;58692;43.212;27.908;2023-12-07T10:37:58;7.84;91.19
71039;SHT30;58692;43.212;27.908;2023-12-07T10:40:23;7.94;91.38
71039;SHT30;58692;43.212;27.908;2023-12-07T10:42:54;8.01;90.90
71039;SHT30;58692;43.212;27.908;2023-12-07T10:45:27;8.08;90.98
71039;SHT30;58692;43.212;27.908;2023-12-07T10:48:01;7.86;90.13
71039;SHT30;58692;43.212;27.908;2023-12-07T10:50:32;7.73;90.73
71039;SHT30;58692;43.212;27.908;2023-12-07T10:53:11;7.77;90.88
71039;SHT30;58692;43.212;27.908;2023-12-07T10:55:46;7.76;90.87
71039;SHT30;58692;43.212;27.908;2023-12-07T10:58:24;7.73;91.07
71039;SHT30;58692;43.212;27.908;2023-12-07T11:00:52;7.77;91.10
71039;SHT30;58692;43.212;27.908;2023-12-07T11:03:18;7.80;90.88
71039;SHT30;58692;43.212;27.908;2023-12-07T11:05:45;7.65;90.84
71039;SHT30;58692;43.212;27.908;2023-12-07T11:08:27;7.65;91.48
71039;SHT30;58692;43.212;27.908;2023-12-07T11:11:21;7.69;91.57
71039;SHT30;58692;43.212;27.908;2023-12-07T11:13:59;7.52;90.96
71039;SHT30;58692;43.212;27.908;2023-12-07T11:16:38;7.49;91.60
71039;SHT30;58692;43.212;27.908;2023-12-07T11:22:12;7.60;91.26
71039;SHT30;58692;43.212;27.908;2023-12-07T11:24:57;7.52;91.18
71039;SHT30;58692;43.212;27.908;2023-12-07T11:27:29;7.48;90.86
71039;SHT30;58692;43.212;27.908;2023-12-07T11:29:58;7.49;90.75
71039;SHT30;58692;43.212;27.908;2023-12-07T11:32:27;7.43;91.24
71039;SHT30;58692;43.212;27.908;2023-12-07T11:34:53;7.40;91.37
71039;SHT30;58692;43.212;27.908;2023-12-07T11:37:19;7.50;91.09
71039;SHT30;58692;43.212;27.908;2023-12-07T11:39:45;7.49;91.59
71039;SHT30;58692;43.212;27.908;2023-12-07T11:42:15;7.46;91.56
71039;SHT30;58692;43.212;27.908;2023-12-07T11:44:42;7.33;91.41
71039;SHT30;58692;43.212;27.908;2023-12-07T11:47:10;7.30;91.28
71039;SHT30;58692;43.212;27.908;2023-12-07T11:49:46;7.23;91.27
71039;SHT30;58692;43.212;27.908;2023-12-07T11:52:23;7.23;91.35
71039;SHT30;58692;43.212;27.908;2023-12-07T11:54:50;7.22;91.47
71039;SHT30;58692;43.212;27.908;2023-12-07T11:57:17;7.05;91.15
71039;SHT30;58692;43.212;27.908;2023-12-07T11:59:44;7.16;91.61
71039;SHT30;58692;43.212;27.908;2023-12-07T12:02:11;7.16;91.91
71039;SHT30;58692;43.212;27.908;2023-12-07T12:04:46;7.11;91.74
71039;SHT30;58692;43.212;27.908;2023-12-07T12:07:11;6.94;91.68
71039;SHT30;58692;43.212;27.908;2023-12-07T12:09:37;6.91;92.70
71039;SHT30;58692;43.212;27.908;2023-12-07T12:12:03;6.88;91.85
71039;SHT30;58692;43.212;27.908;2023-12-07T12:14:29;6.84;92.77
71039;SHT30;58692;43.212;27.908;2023-12-07T12:16:55;6.91;93.08
71039;SHT30;58692;43.212;27.908;2023-12-07T12:19:22;6.88;92.08
71039;SHT30;58692;43.212;27.908;2023-12-07T12:21:50;6.89;92.45
71039;SHT30;58692;43.212;27.908;2023-12-07T12:24:21;6.94;92.46
71039;SHT30;58692;43.212;27.908;2023-12-07T12:26:47;6.83;91.86
71039;SHT30;58692;43.212;27.908;2023-12-07T12:29:14;6.78;92.18
71039;SHT30;58692;43.212;27.908;2023-12-07T12:31:40;6.88;92.23
71039;SHT30;58692;43.212;27.908;2023-12-07T12:34:06;6.92;92.31
71039;SHT30;58692;43.212;27.908;2023-12-07T12:36:34;6.95;91.96
71039;SHT30;58692;43.212;27.908;2023-12-07T12:39:00;7.04;92.24
71039;SHT30;58692;43.212;27.908;2023-12-07T12:41:27;6.97;91.94
71039;SHT30;58692;43.212;27.908;2023-12-07T12:43:56;6.87;91.11
71039;SHT30;58692;43.212;27.908;2023-12-07T12:46:22;6.87;91.41
71039;SHT30;58692;43.212;27.908;2023-12-07T12:48:56;6.80;91.33
71039;SHT30;58692;43.212;27.908;2023-12-07T12:51:25;6.71;91.59
71039;SHT30;58692;43.212;27.908;2023-12-07T12:53:51;6.58;91.64
71039;SHT30;58692;43.212;27.908;2023-12-07T12:56:20;6.74;92.04
71039;SHT30;58692;43.212;27.908;2023-12-07T12:58:50;6.80;91.96
71039;SHT30;58692;43.212;27.908;2023-12-07T13:01:17;6.64;91.04
71039;SHT30;58692;43.212;27.908;2023-12-07T13:03:44;6.71;90.94
71039;SHT30;58692;43.212;27.908;2023-12-07T13:06:12;6.60;90.50
71039;SHT30;58692;43.212;27.908;2023-12-07T13:08:40;6.61;91.67
71039;SHT30;58692;43.212;27.908;2023-12-07T13:11:14;6.61;91.52
71039;SHT30;58692;43.212;27.908;2023-12-07T13:13:40;6.43;90.83
71039;SHT30;58692;43.212;27.908;2023-12-07T13:16:06;6.46;90.77
71039;SHT30;58692;43.212;27.908;2023-12-07T13:18:32;6.48;91.33
71039;SHT30;58692;43.212;27.908;2023-12-07T13:20:57;6.47;90.66
71039;SHT30;58692;43.212;27.908;2023-12-07T13:23:25;6.37;90.88
71039;SHT30;58692;43.212;27.908;2023-12-07T13:25:51;6.32;90.33
71039;SHT30;58692;43.212;27.908;2023-12-07T13:28:17;6.13;90.28
71039;SHT30;58692;43.212;27.908;2023-12-07T13:30:42;6.06;91.30
71039;SHT30;58692;43.212;27.908;2023-12-07T13:33:08;6.02;91.08
71039;SHT30;58692;43.212;27.908;2023-12-07T13:35:35;6.07;90.58
71039;SHT30;58692;43.212;27.908;2023-12-07T13:38:01;6.10;90.34
71039;SHT30;58692;43.212;27.908;2023-12-07T13:40:26;5.99;90.58
71039;SHT30;58692;43.212;27.908;2023-12-07T13:42:52;5.99;90.66
71039;SHT30;58692;43.212;27.908;2023-12-07T13:45:18;5.82;90.91
71039;SHT30;58692;43.212;27.908;2023-12-07T13:47:43;5.93;90.70
71039;SHT30;58692;43.212;27.908;2023-12-07T13:50:09;5.76;90.36
71039;SHT30;58692;43.212;27.908;2023-12-07T13:52:38;5.81;90.84
71039;SHT30;58692;43.212;27.908;2023-12-07T13:55:04;5.72;90.71
71039;SHT30;58692;43.212;27.908;2023-12-07T13:57:30;5.72;91.35
71039;SHT30;58692;43.212;27.908;2023-12-07T13:59:55;5.68;91.03
71039;SHT30;58692;43.212;27.908;2023-12-07T14:02:21;5.71;90.85
71039;SHT30;58692;43.212;27.908;2023-12-07T14:04:50;5.68;90.60
71039;SHT30;58692;43.212;27.908;2023-12-07T14:07:19;5.82;91.57
71039;SHT30;58692;43.212;27.908;2023-12-07T14:09:47;5.81;90.34
71039;SHT30;58692;43.212;27.908;2023-12-07T14:12:17;5.71;90.15
71039;SHT30;58692;43.212;27.908;2023-12-07T14:14:45;5.75;90.42
71039;SHT30;58692;43.212;27.908;2023-12-07T14:17:13;5.82;90.41
71039;SHT30;58692;43.212;27.908;2023-12-07T14:19:39;5.81;90.31
71039;SHT30;58692;43.212;27.908;2023-12-07T14:22:05;5.71;90.09
71039;SHT30;58692;43.212;27.908;2023-12-07T14:24:31;5.56;89.73
71039;SHT30;58692;43.212;27.908;2023-12-07T14:26:57;5.50;89.72
71039;SHT30;58692;43.212;27.908;2023-12-07T14:29:23;5.51;89.80
71039;SHT30;58692;43.212;27.908;2023-12-07T14:31:50;5.44;90.20
71039;SHT30;58692;43.212;27.908;2023-12-07T14:34:17;5.44;89.77
71039;SHT30;58692;43.212;27.908;2023-12-07T14:36:43;5.56;90.30
71039;SHT30;58692;43.212;27.908;2023-12-07T14:39:11;5.54;89.73
71039;SHT30;58692;43.212;27.908;2023-12-07T14:41:43;5.62;89.50
71039;SHT30;58692;43.212;27.908;2023-12-07T14:44:14;5.61;89.11
71039;SHT30;58692;43.212;27.908;2023-12-07T14:46:45;5.62;89.46
71039;SHT30;58692;43.212;27.908;2023-12-07T14:49:13;5.61;90.38
71039;SHT30;58692;43.212;27.908;2023-12-07T14:51:39;5.69;89.72
71039;SHT30;58692;43.212;27.908;2023-12-07T14:54:06;5.76;89.47
71039;SHT30;58692;43.212;27.908;2023-12-07T14:56:32;5.86;89.84
71039;SHT30;58692;43.212;27.908;2023-12-07T14:59:00;5.68;89.54
71039;SHT30;58692;43.212;27.908;2023-12-07T15:01:26;5.54;89.21
71039;SHT30;58692;43.212;27.908;2023-12-07T15:03:52;5.51;89.55
71039;SHT30;58692;43.212;27.908;2023-12-07T15:06:17;5.35;89.77
71039;SHT30;58692;43.212;27.908;2023-12-07T15:08:43;5.42;89.93
71039;SHT30;58692;43.212;27.908;2023-12-07T15:11:09;5.54;90.48
71039;SHT30;58692;43.212;27.908;2023-12-07T15:13:35;5.50;90.48
71039;SHT30;58692;43.212;27.908;2023-12-07T15:16:01;5.41;91.05
71039;SHT30;58692;43.212;27.908;2023-12-07T15:18:29;5.31;90.72
71039;SHT30;58692;43.212;27.908;2023-12-07T15:20:57;5.17;91.19
71039;SHT30;58692;43.212;27.908;2023-12-07T15:23:22;5.21;90.92
71039;SHT30;58692;43.212;27.908;2023-12-07T15:25:48;5.11;91.62
71039;SHT30;58692;43.212;27.908;2023-12-07T15:28:14;5.04;90.83
71039;SHT30;58692;43.212;27.908;2023-12-07T15:30:42;5.14;91.07
71039;SHT30;58692;43.212;27.908;2023-12-07T15:33:09;5.10;91.28
71039;SHT30;58692;43.212;27.908;2023-12-07T15:35:35;5.04;91.07
71039;SHT30;58692;43.212;27.908;2023-12-07T15:38:00;5.10;91.21
71039;SHT30;58692;43.212;27.908;2023-12-07T15:40:26;4.99;91.46
71039;SHT30;58692;43.212;27.908;2023-12-07T15:42:51;4.80;91.01